Time;durP1;ratioP1;P1;durP2;ratioP2;P2;SDS_P1;SDS_P2;PMS_P1;PMS_P2;Temp;Humidity;BMP_temperature;BMP_pressure;BME280_temperature;BME280_humidity;BME280_pressure;Samples;Min_cycle;Max_cycle;Signal;HPM_P1;HPM_P2
2021/06/10 00:01:45;;;;;;;1.80;1.40;;;20.30;99.90;;;;;;5017065;28;20199;-78
2021/06/10 00:04:10;;;;;;;0.87;0.70;;;20.20;99.90;;;;;;5033093;28;20445;-78
2021/06/10 00:06:36;;;;;;;1.20;0.73;;;20.20;99.90;;;;;;5018469;28;20934;-78
2021/06/10 00:09:03;;;;;;;0.80;0.60;;;20.20;99.90;;;;;;5028824;28;20190;-78
2021/06/10 00:11:28;;;;;;;0.80;0.70;;;20.10;99.90;;;;;;5031690;28;20183;-77
2021/06/10 00:13:54;;;;;;;1.00;0.90;;;20.10;99.90;;;;;;5024982;28;20426;-76
2021/06/10 00:16:19;;;;;;;1.37;1.23;;;20.10;99.90;;;;;;5037132;28;20199;-79
2021/06/10 00:18:48;;;;;;;0.80;0.60;;;20.10;99.90;;;;;;5024782;28;20206;-78
2021/06/10 00:21:14;;;;;;;1.10;0.80;;;20.00;99.90;;;;;;5033218;28;20176;-78
2021/06/10 00:23:40;;;;;;;0.80;0.50;;;20.00;99.90;;;;;;5023251;28;20431;-78
2021/06/10 00:26:05;;;;;;;1.30;0.90;;;19.90;99.90;;;;;;5036958;28;20788;-79
2021/06/10 00:28:31;;;;;;;1.13;1.00;;;19.90;99.90;;;;;;5028278;28;20538;-77
2021/06/10 00:30:58;;;;;;;1.30;0.70;;;19.90;99.90;;;;;;5014054;28;20219;-78
2021/06/10 00:33:24;;;;;;;0.80;0.70;;;19.80;99.90;;;;;;5017574;28;20207;-78
2021/06/10 00:35:49;;;;;;;0.90;0.80;;;19.80;99.90;;;;;;5020891;28;20435;-78
2021/06/10 00:38:15;;;;;;;2.00;1.03;;;19.70;99.90;;;;;;5024344;28;20172;-78
2021/06/10 00:40:40;;;;;;;1.63;0.83;;;19.70;99.90;;;;;;5035569;28;20249;-78
2021/06/10 00:43:07;;;;;;;0.90;0.60;;;19.70;99.90;;;;;;5017801;28;20551;-78
2021/06/10 00:45:32;;;;;;;0.97;0.70;;;19.70;99.90;;;;;;5034003;28;20186;-80
2021/06/10 00:47:58;;;;;;;2.23;0.97;;;19.60;99.90;;;;;;5024306;28;20438;-78
2021/06/10 00:50:38;;;;;;;1.00;0.80;;;19.60;99.90;;;;;;5029755;28;20203;-79
2021/06/10 00:53:04;;;;;;;0.90;0.80;;;19.60;99.90;;;;;;5014673;28;20207;-78
2021/06/10 00:55:30;;;;;;;2.80;0.87;;;19.60;99.90;;;;;;5024133;28;20477;-78
2021/06/10 00:57:56;;;;;;;1.30;0.97;;;19.60;99.90;;;;;;5031305;28;20552;-79
2021/06/10 01:00:22;;;;;;;0.80;0.50;;;19.50;99.90;;;;;;5027572;28;20687;-79
2021/06/10 01:02:48;;;;;;;1.23;0.90;;;19.50;99.90;;;;;;5030361;28;20181;-77
2021/06/10 01:05:15;;;;;;;0.80;0.60;;;19.50;99.90;;;;;;5000939;28;21059;-79
2021/06/10 01:08:24;;;;;;;0.90;0.70;;;19.50;99.90;;;;;;5031726;28;20178;-77
2021/06/10 01:11:10;;;;;;;1.00;0.80;;;19.50;99.90;;;;;;5029532;28;21024;-79
2021/06/10 01:14:05;;;;;;;1.93;1.83;;;19.50;99.90;;;;;;5031513;28;21027;-79
2021/06/10 01:16:34;;;;;;;1.93;0.87;;;19.50;99.90;;;;;;5034508;28;20497;-79
2021/06/10 01:19:07;;;;;;;1.90;1.40;;;19.50;99.90;;;;;;5030755;28;20423;-79
2021/06/10 01:21:34;;;;;;;0.90;0.60;;;19.40;99.90;;;;;;5024480;28;20466;-79
2021/06/10 01:24:18;;;;;;;1.10;0.90;;;19.40;99.90;;;;;;5005885;28;20466;-80
2021/06/10 01:27:02;;;;;;;0.97;0.80;;;19.40;99.90;;;;;;5029627;28;20414;-78
2021/06/10 01:29:29;;;;;;;2.03;1.83;;;19.30;99.90;;;;;;5017190;28;20438;-81
2021/06/10 01:31:55;;;;;;;1.50;0.97;;;19.30;99.90;;;;;;5014017;28;20422;-78
2021/06/10 01:34:21;;;;;;;0.80;0.57;;;19.30;99.90;;;;;;5035882;28;20697;-80
2021/06/10 01:36:47;;;;;;;0.90;0.60;;;19.20;99.90;;;;;;5034177;28;20238;-80
2021/06/10 01:39:17;;;;;;;0.80;0.60;;;19.20;99.90;;;;;;5027031;28;20210;-77
2021/06/10 01:41:43;;;;;;;0.80;0.60;;;19.10;99.90;;;;;;5021301;28;20435;-79
2021/06/10 01:44:12;;;;;;;2.53;1.27;;;19.10;99.90;;;;;;5011766;28;20776;-78
2021/06/10 01:46:39;;;;;;;1.07;0.83;;;19.00;99.90;;;;;;5026905;28;20445;-77
2021/06/10 01:49:06;;;;;;;6.30;0.93;;;18.90;99.90;;;;;;5017630;28;20462;-77
2021/06/10 01:51:33;;;;;;;0.80;0.50;;;18.90;99.90;;;;;;5000747;28;20446;-78
2021/06/10 01:54:02;;;;;;;0.80;0.60;;;18.70;99.90;;;;;;5033158;28;20434;-78
2021/06/10 01:56:29;;;;;;;0.80;0.60;;;18.70;99.90;;;;;;5009510;28;22249;-79
2021/06/10 01:58:55;;;;;;;0.90;0.80;;;18.60;99.90;;;;;;5027097;28;20438;-78
2021/06/10 02:01:29;;;;;;;0.90;0.80;;;18.60;99.90;;;;;;5029231;28;20433;-78
2021/06/10 02:03:57;;;;;;;1.53;0.70;;;18.60;99.90;;;;;;5036612;28;20425;-78
2021/06/10 02:06:23;;;;;;;1.00;0.80;;;18.50;99.90;;;;;;5035100;28;20414;-79
2021/06/10 02:08:51;;;;;;;2.03;1.57;;;18.50;99.90;;;;;;5041283;28;20434;-79
2021/06/10 02:11:17;;;;;;;3.23;0.80;;;18.40;99.90;;;;;;5036684;28;20440;-78
2021/06/10 02:13:44;;;;;;;0.80;0.60;;;18.40;99.90;;;;;;5024288;28;20441;-79
2021/06/10 02:16:12;;;;;;;0.80;0.60;;;18.40;99.90;;;;;;5022965;28;21018;-79
2021/06/10 02:18:39;;;;;;;1.17;0.70;;;18.40;99.90;;;;;;5039662;28;20430;-79
2021/06/10 02:21:07;;;;;;;1.57;0.90;;;18.40;99.90;;;;;;5022752;28;20453;-80
2021/06/10 02:23:36;;;;;;;0.90;0.60;;;18.40;99.90;;;;;;5035401;28;20421;-79
2021/06/10 02:26:03;;;;;;;0.80;0.50;;;18.30;99.90;;;;;;5042619;28;20397;-79
2021/06/10 02:28:28;;;;;;;0.90;0.60;;;18.30;99.90;;;;;;5042031;28;20438;-79
2021/06/10 02:30:54;;;;;;;0.90;0.80;;;18.30;99.90;;;;;;5041512;28;20460;-79
2021/06/10 02:33:20;;;;;;;0.80;0.60;;;18.20;99.90;;;;;;5020446;28;20191;-78
2021/06/10 02:35:47;;;;;;;0.90;0.80;;;18.20;99.90;;;;;;5002934;28;20165;-78
2021/06/10 02:38:14;;;;;;;1.17;0.70;;;18.20;99.90;;;;;;5005039;28;20295;-78
2021/06/10 02:40:44;;;;;;;0.97;0.70;;;18.20;99.90;;;;;;5019355;28;20558;-79
2021/06/10 02:43:11;;;;;;;0.80;0.77;;;18.20;99.90;;;;;;5035100;28;20422;-80
2021/06/10 02:45:39;;;;;;;0.80;0.60;;;18.20;99.90;;;;;;5020796;28;20431;-78
2021/06/10 02:48:06;;;;;;;1.10;1.00;;;18.10;99.90;;;;;;5034172;28;20426;-79
2021/06/10 02:50:32;;;;;;;1.00;0.70;;;18.00;99.90;;;;;;5023846;28;20442;-80
2021/06/10 02:52:59;;;;;;;0.80;0.50;;;18.00;99.90;;;;;;5023857;28;20420;-79
2021/06/10 02:55:28;;;;;;;0.80;0.60;;;18.10;99.90;;;;;;5025155;28;20494;-79
2021/06/10 02:57:57;;;;;;;0.90;0.80;;;18.10;99.90;;;;;;5020839;28;20460;-79
2021/06/10 03:00:27;;;;;;;0.80;0.60;;;18.10;99.90;;;;;;5002691;28;20498;-80
2021/06/10 03:02:54;;;;;;;0.80;0.60;;;18.10;99.90;;;;;;5020816;28;20422;-79
2021/06/10 03:59:58;;;;;;;0.77;0.50;;;17.60;99.90;;;;;;5104078;28;20512;-80
2021/06/10 04:02:25;;;;;;;1.40;0.80;;;17.70;99.90;;;;;;5086562;28;20428;-80
2021/06/10 04:04:52;;;;;;;1.10;0.70;;;17.80;99.90;;;;;;5076618;28;20420;-79
2021/06/10 04:07:17;;;;;;;0.83;0.67;;;17.80;99.90;;;;;;5010260;28;20462;-79
2021/06/10 04:09:43;;;;;;;0.80;0.70;;;17.80;99.90;;;;;;4990266;28;20436;-78
2021/06/10 04:12:08;;;;;;;1.30;0.80;;;17.90;99.90;;;;;;4915248;28;20548;-79
2021/06/10 04:14:34;;;;;;;0.80;0.60;;;17.90;99.90;;;;;;4835895;29;20213;-79
2021/06/10 04:17:00;;;;;;;1.03;0.90;;;17.90;99.90;;;;;;4828398;29;20246;-79
2021/06/10 04:22:03;;;;;;;0.80;0.60;;;17.90;99.90;;;;;;5195925;27;20513;-80
2021/06/10 04:24:28;;;;;;;0.80;0.70;;;18.00;99.90;;;;;;5146192;27;20445;-79
2021/06/10 04:26:54;;;;;;;1.07;0.97;;;18.00;99.90;;;;;;5152827;27;20671;-79
2021/06/10 04:29:20;;;;;;;1.67;0.87;;;18.00;99.90;;;;;;5152315;27;20183;-79
2021/06/10 04:31:45;;;;;;;2.83;0.80;;;18.10;99.90;;;;;;5080303;28;20182;-78
2021/06/10 04:34:11;;;;;;;1.00;0.90;;;18.10;99.90;;;;;;5074701;28;20603;-79
2021/06/10 04:36:36;;;;;;;1.10;0.80;;;18.10;99.90;;;;;;5075586;28;20214;-79
2021/06/10 04:39:03;;;;;;;0.80;0.67;;;18.20;99.90;;;;;;4981526;28;20697;-78
2021/06/10 04:41:29;;;;;;;0.80;0.60;;;18.20;99.90;;;;;;4933070;29;20210;-80
2021/06/10 04:46:30;;;;;;;0.80;0.60;;;18.20;99.90;;;;;;5114218;27;20495;-79
2021/06/10 04:48:56;;;;;;;0.90;0.80;;;18.30;99.90;;;;;;5073758;28;20809;-79
2021/06/10 04:51:25;;;;;;;1.83;0.90;;;18.30;99.90;;;;;;5073301;28;20154;-78
2021/06/10 04:53:53;;;;;;;0.93;0.60;;;18.40;99.90;;;;;;5079063;28;20417;-79
2021/06/10 04:56:19;;;;;;;1.00;0.80;;;18.40;99.90;;;;;;5072903;28;20502;-79
2021/06/10 04:58:44;;;;;;;0.87;0.73;;;18.50;99.90;;;;;;5072845;28;20916;-79
2021/06/10 05:01:10;;;;;;;7.27;1.03;;;18.50;99.90;;;;;;5073784;28;20423;-78
2021/06/10 05:03:35;;;;;;;1.10;0.80;;;18.60;99.90;;;;;;5074378;28;20178;-79
2021/06/10 05:06:01;;;;;;;2.60;1.27;;;18.70;99.90;;;;;;5073595;28;20202;-79
2021/06/10 05:08:27;;;;;;;0.80;0.60;;;18.70;99.90;;;;;;5073142;28;20505;-79
2021/06/10 05:10:53;;;;;;;0.90;0.70;;;18.80;99.90;;;;;;5073159;28;20169;-79
2021/06/10 05:13:19;;;;;;;1.10;0.77;;;18.90;99.90;;;;;;5074455;28;20416;-79
2021/06/10 05:15:44;;;;;;;3.17;0.80;;;19.00;99.90;;;;;;5072624;28;20433;-79
2021/06/10 05:18:10;;;;;;;0.97;0.83;;;19.10;99.90;;;;;;5073792;28;20170;-79
2021/06/10 05:20:36;;;;;;;1.10;0.83;;;19.20;99.90;;;;;;5072945;28;20170;-79
2021/06/10 05:23:01;;;;;;;0.97;0.87;;;19.30;99.90;;;;;;5071845;28;20167;-79
2021/06/10 05:25:27;;;;;;;1.43;0.90;;;19.40;99.90;;;;;;5087709;28;20668;-79
2021/06/10 05:27:53;;;;;;;1.50;0.90;;;19.50;99.90;;;;;;5082093;28;20198;-77
2021/06/10 05:30:18;;;;;;;0.80;0.70;;;19.70;99.90;;;;;;5073009;28;20171;-79
2021/06/10 05:32:44;;;;;;;0.90;0.70;;;19.80;99.90;;;;;;5072045;28;20249;-79
2021/06/10 05:35:10;;;;;;;2.40;2.20;;;19.90;99.90;;;;;;5072391;28;20420;-79
2021/06/10 05:37:36;;;;;;;0.90;0.60;;;20.00;99.90;;;;;;5071880;28;20178;-79
2021/06/10 05:40:02;;;;;;;1.00;0.80;;;20.20;99.90;;;;;;5073627;28;20756;-79
2021/06/10 05:42:27;;;;;;;0.97;0.87;;;20.30;99.90;;;;;;5072427;28;20178;-78
2021/06/10 05:44:53;;;;;;;1.53;0.80;;;20.50;99.90;;;;;;5073574;28;21077;-79
2021/06/10 05:47:18;;;;;;;1.00;0.73;;;20.60;99.90;;;;;;5072486;28;20843;-79
2021/06/10 05:49:44;;;;;;;1.33;1.23;;;20.70;99.90;;;;;;5071643;28;20201;-79
2021/06/10 05:52:09;;;;;;;0.90;0.70;;;20.90;99.90;;;;;;5071650;28;20167;-79
2021/06/10 05:54:35;;;;;;;1.47;1.23;;;21.00;99.90;;;;;;5073874;28;20205;-79
2021/06/10 05:57:00;;;;;;;1.07;0.80;;;21.20;99.90;;;;;;5062293;28;20206;-79
2021/06/10 05:59:26;;;;;;;1.30;1.07;;;21.40;99.90;;;;;;5058767;28;20171;-79
2021/06/10 06:01:52;;;;;;;0.90;0.70;;;21.60;99.90;;;;;;5058514;28;20182;-79
2021/06/10 06:04:18;;;;;;;1.83;1.03;;;21.70;99.90;;;;;;5059746;28;20175;-79
2021/06/10 06:06:44;;;;;;;1.27;1.17;;;21.90;99.90;;;;;;5059667;28;20186;-79
2021/06/10 06:09:10;;;;;;;0.90;0.80;;;22.10;99.90;;;;;;5058898;28;20803;-79
2021/06/10 06:11:36;;;;;;;1.20;1.07;;;22.30;99.90;;;;;;5059012;28;20182;-79
2021/06/10 06:14:10;;;;;;;1.40;1.00;;;22.50;99.90;;;;;;5060418;28;20178;-80
2021/06/10 06:16:37;;;;;;;0.97;0.77;;;22.70;99.90;;;;;;5059106;28;20426;-79
2021/06/10 06:19:07;;;;;;;1.00;0.90;;;22.90;99.90;;;;;;5059149;28;20405;-79
2021/06/10 06:21:34;;;;;;;1.20;0.97;;;23.20;99.90;;;;;;5060119;28;20517;-79
2021/06/10 06:24:01;;;;;;;1.03;0.93;;;23.40;99.90;;;;;;5059416;28;20445;-79
2021/06/10 06:26:27;;;;;;;0.80;0.60;;;23.50;99.90;;;;;;5059239;28;20996;-79
2021/06/10 06:28:54;;;;;;;0.90;0.80;;;23.60;99.90;;;;;;5059475;28;20424;-79
2021/06/10 06:31:20;;;;;;;0.90;0.80;;;23.70;99.90;;;;;;5058497;28;20508;-79
2021/06/10 06:33:46;;;;;;;1.10;1.00;;;23.80;99.90;;;;;;5059772;28;21137;-80
2021/06/10 06:36:12;;;;;;;1.63;1.00;;;24.10;99.90;;;;;;5057774;28;20499;-79
2021/06/10 06:38:37;;;;;;;1.00;0.90;;;24.30;99.90;;;;;;5059206;28;20171;-79
2021/06/10 06:41:05;;;;;;;2.03;1.10;;;24.50;99.90;;;;;;5059586;28;20800;-80
2021/06/10 06:43:31;;;;;;;2.07;1.60;;;24.70;99.90;;;;;;5057939;28;20178;-78
2021/06/10 06:45:57;;;;;;;0.90;0.70;;;25.00;99.90;;;;;;5058001;28;20488;-80
2021/06/10 06:48:23;;;;;;;1.00;0.83;;;25.20;99.90;;;;;;5057205;28;20240;-79
2021/06/10 06:50:48;;;;;;;1.10;1.00;;;25.40;99.90;;;;;;5057529;28;21099;-80
2021/06/10 06:53:14;;;;;;;1.90;1.37;;;25.60;99.90;;;;;;5061880;28;20199;-79
2021/06/10 06:55:40;;;;;;;1.20;0.87;;;25.70;99.90;;;;;;5059493;28;20248;-79
2021/06/10 06:58:05;;;;;;;2.07;1.10;;;25.90;99.90;;;;;;5057254;28;20175;-79
2021/06/10 07:00:31;;;;;;;1.33;0.90;;;26.20;99.90;;;;;;5057761;28;20428;-78
2021/06/10 07:02:57;;;;;;;1.33;1.07;;;26.30;99.90;;;;;;5057229;28;20179;-80
2021/06/10 07:05:22;;;;;;;1.20;1.10;;;26.50;99.90;;;;;;5058303;28;20199;-79
2021/06/10 07:07:48;;;;;;;5.20;1.40;;;26.50;99.90;;;;;;5057202;28;20171;-79
2021/06/10 07:10:14;;;;;;;2.27;1.40;;;26.70;99.90;;;;;;5057464;28;20186;-78
2021/06/10 07:12:40;;;;;;;2.20;2.00;;;26.90;99.90;;;;;;5057253;28;20171;-80
2021/06/10 07:15:06;;;;;;;1.50;1.40;;;27.10;99.90;;;;;;5057217;28;20424;-79
2021/06/10 07:17:32;;;;;;;3.20;1.60;;;27.30;99.90;;;;;;5059246;28;20530;-79
2021/06/10 07:20:00;;;;;;;1.93;1.47;;;27.50;99.90;;;;;;5056596;28;20418;-79
2021/06/10 07:22:26;;;;;;;1.40;1.30;;;27.70;99.90;;;;;;5057789;28;20421;-79
2021/06/10 07:24:51;;;;;;;1.53;1.17;;;27.80;96.40;;;;;;5056997;28;21059;-79
2021/06/10 07:27:17;;;;;;;2.13;1.40;;;27.80;96.60;;;;;;5066811;28;20277;-79
2021/06/10 07:29:44;;;;;;;2.27;1.93;;;28.00;98.70;;;;;;5068066;28;20209;-80
2021/06/10 07:32:10;;;;;;;1.60;1.50;;;28.10;97.00;;;;;;5056783;28;20420;-79
2021/06/10 07:34:37;;;;;;;2.60;1.17;;;28.30;99.00;;;;;;5057131;28;20414;-80
2021/06/10 07:37:06;;;;;;;2.10;1.90;;;28.50;93.90;;;;;;5057148;28;20329;-80
2021/06/10 07:39:33;;;;;;;2.13;1.40;;;28.60;87.30;;;;;;5056986;28;20433;-79
2021/06/10 07:41:59;;;;;;;1.07;0.97;;;28.80;91.50;;;;;;5056374;28;20504;-80
2021/06/10 07:44:26;;;;;;;1.20;1.10;;;29.10;93.20;;;;;;5056519;28;20421;-80
2021/06/10 07:46:51;;;;;;;1.40;1.10;;;29.30;76.90;;;;;;5058114;28;20425;-80
2021/06/10 07:49:17;;;;;;;1.40;1.30;;;29.60;75.30;;;;;;5057415;28;20447;-79
2021/06/10 07:51:43;;;;;;;4.40;1.40;;;29.80;71.10;;;;;;5056484;28;20182;-78
2021/06/10 07:54:08;;;;;;;3.27;1.00;;;30.00;69.80;;;;;;5056535;28;20546;-80
2021/06/10 07:56:34;;;;;;;1.17;1.07;;;30.20;74.60;;;;;;5057224;28;20183;-80
2021/06/10 07:58:59;;;;;;;1.80;1.70;;;30.40;64.20;;;;;;5056544;28;20225;-78
2021/06/10 08:01:25;;;;;;;1.40;1.10;;;30.40;67.90;;;;;;5055194;28;20175;-77
2021/06/10 08:03:50;;;;;;;2.13;1.00;;;30.60;65.90;;;;;;5055297;28;20171;-78
2021/06/10 08:06:16;;;;;;;1.57;1.10;;;30.90;63.20;;;;;;5056122;28;20221;-78
2021/06/10 08:08:41;;;;;;;1.30;1.13;;;31.00;64.50;;;;;;5056270;28;20178;-78
2021/06/10 08:11:09;;;;;;;2.13;1.73;;;31.30;67.20;;;;;;5055744;28;20179;-77
2021/06/10 08:13:35;;;;;;;1.20;1.10;;;31.50;68.00;;;;;;5054745;28;20179;-78
2021/06/10 08:16:01;;;;;;;1.70;1.60;;;31.80;65.60;;;;;;5045302;28;20463;-76
2021/06/10 08:18:28;;;;;;;1.33;1.23;;;32.00;63.40;;;;;;5053263;28;20186;-78
2021/06/10 08:20:55;;;;;;;1.63;1.47;;;32.00;63.10;;;;;;5047470;28;20175;-78
2021/06/10 08:23:21;;;;;;;1.10;0.90;;;32.30;64.00;;;;;;5085864;28;20438;-76
2021/06/10 08:25:47;;;;;;;1.10;1.00;;;32.30;57.40;;;;;;5051861;28;20461;-76
2021/06/10 08:28:13;;;;;;;2.87;1.43;;;32.60;58.30;;;;;;5052833;28;20178;-77
2021/06/10 08:30:39;;;;;;;1.30;1.20;;;32.60;57.30;;;;;;5063182;28;20166;-77
2021/06/10 08:33:05;;;;;;;2.30;1.20;;;33.10;59.60;;;;;;5051264;28;20421;-76
2021/06/10 08:35:31;;;;;;;2.10;1.33;;;33.20;57.90;;;;;;5050969;28;20202;-77
2021/06/10 08:37:58;;;;;;;1.30;1.20;;;32.90;57.00;;;;;;5059204;28;20430;-77
2021/06/10 08:40:24;;;;;;;1.50;1.03;;;33.10;55.50;;;;;;5073413;28;20779;-77
2021/06/10 08:42:50;;;;;;;1.30;1.20;;;33.30;56.30;;;;;;5074775;28;20512;-77
2021/06/10 08:45:17;;;;;;;1.47;1.13;;;33.60;55.30;;;;;;5074779;28;20214;-77
2021/06/10 08:47:45;;;;;;;1.50;1.40;;;33.90;55.30;;;;;;5073906;28;20170;-77
2021/06/10 08:50:15;;;;;;;1.30;1.20;;;33.90;55.40;;;;;;5073449;28;20805;-77
2021/06/10 08:52:41;;;;;;;1.40;1.30;;;33.80;57.00;;;;;;5074302;28;20400;-77
2021/06/10 08:55:08;;;;;;;4.70;1.77;;;34.10;57.60;;;;;;5073305;28;20436;-77
2021/06/10 08:57:35;;;;;;;1.30;1.20;;;34.40;57.00;;;;;;5073815;28;20424;-77
2021/06/10 09:00:01;;;;;;;1.33;1.17;;;34.40;56.10;;;;;;5073939;28;20420;-77
2021/06/10 09:02:26;;;;;;;2.33;1.20;;;34.50;53.60;;;;;;5074137;28;20409;-76
2021/06/10 09:04:59;;;;;;;1.40;1.30;;;34.50;53.20;;;;;;5073674;28;20505;-75
2021/06/10 09:07:50;;;;;;;1.77;1.53;;;34.30;52.30;;;;;;5075745;28;20613;-77
2021/06/10 09:10:21;;;;;;;1.27;1.17;;;34.50;50.40;;;;;;5075542;28;20416;-78
2021/06/10 09:12:58;;;;;;;1.93;1.50;;;34.60;49.10;;;;;;5075171;28;20400;-77
2021/06/10 09:15:27;;;;;;;1.60;1.37;;;34.70;50.40;;;;;;5073869;28;20412;-78
2021/06/10 09:17:55;;;;;;;2.17;1.33;;;34.60;49.60;;;;;;5075753;28;20401;-77
2021/06/10 09:20:29;;;;;;;1.63;1.53;;;35.10;51.30;;;;;;5074957;28;20432;-78
2021/06/10 09:23:19;;;;;;;2.17;1.67;;;35.10;50.70;;;;;;5075312;28;20410;-77
2021/06/10 09:25:49;;;;;;;1.40;1.30;;;35.20;52.10;;;;;;5074718;28;20460;-77
2021/06/10 09:28:16;;;;;;;2.07;1.50;;;35.00;48.80;;;;;;5056100;28;20413;-76
2021/06/10 09:30:53;;;;;;;1.10;1.00;;;34.90;49.20;;;;;;5054403;28;20520;-76
2021/06/10 09:33:23;;;;;;;1.53;1.00;;;34.90;48.70;;;;;;5057781;28;20417;-77
2021/06/10 09:35:50;;;;;;;3.33;1.67;;;34.80;47.60;;;;;;5079812;28;20444;-76
2021/06/10 09:38:20;;;;;;;1.73;1.63;;;35.10;47.80;;;;;;5058071;28;20547;-77
2021/06/10 09:40:48;;;;;;;1.10;1.00;;;34.90;47.40;;;;;;5057818;28;20422;-77
2021/06/10 09:43:14;;;;;;;1.43;1.33;;;35.40;48.60;;;;;;5059504;28;20413;-77
2021/06/10 09:45:48;;;;;;;1.20;1.10;;;35.70;47.40;;;;;;5057127;28;20481;-77
2021/06/10 09:48:14;;;;;;;2.10;1.57;;;35.90;46.50;;;;;;5056764;28;20420;-77
2021/06/10 09:50:47;;;;;;;2.13;1.20;;;35.90;46.00;;;;;;5047329;28;20409;-77
2021/06/10 09:53:20;;;;;;;1.70;1.10;;;35.80;45.10;;;;;;5049154;28;20206;-77
2021/06/10 09:55:51;;;;;;;1.20;0.90;;;36.00;46.50;;;;;;5058779;28;20475;-78
2021/06/10 09:58:17;;;;;;;3.10;1.60;;;36.10;47.20;;;;;;5057121;28;20417;-77
2021/06/10 10:00:45;;;;;;;1.20;1.10;;;36.10;47.60;;;;;;5058684;28;20455;-77
2021/06/10 10:03:26;;;;;;;1.10;1.00;;;36.20;46.60;;;;;;5059709;28;20170;-78
2021/06/10 10:05:52;;;;;;;1.10;1.00;;;35.90;46.50;;;;;;5054903;28;20523;-77
2021/06/10 10:08:18;;;;;;;1.30;1.20;;;35.40;47.90;;;;;;5057876;28;20402;-78
2021/06/10 10:10:44;;;;;;;1.70;1.13;;;35.40;48.70;;;;;;5055695;28;20747;-77
2021/06/10 10:13:14;;;;;;;1.27;1.10;;;35.10;47.50;;;;;;5056482;28;20198;-76
2021/06/10 10:15:40;;;;;;;1.40;1.30;;;34.70;47.50;;;;;;5055270;28;20189;-76
2021/06/10 10:18:06;;;;;;;1.10;0.90;;;34.30;48.20;;;;;;5054619;28;20417;-76
2021/06/10 10:20:32;;;;;;;0.97;0.80;;;33.80;49.00;;;;;;5054425;28;20221;-76
2021/06/10 10:22:58;;;;;;;1.10;1.00;;;33.40;50.80;;;;;;5053471;28;20420;-76
2021/06/10 10:25:24;;;;;;;1.70;1.03;;;33.30;50.50;;;;;;5053857;28;20445;-76
2021/06/10 10:27:50;;;;;;;1.00;0.90;;;33.20;50.80;;;;;;5054996;28;20498;-77
2021/06/10 10:30:20;;;;;;;1.10;1.00;;;33.50;53.50;;;;;;5055764;28;20471;-77
2021/06/10 10:32:46;;;;;;;1.50;1.33;;;33.70;50.10;;;;;;5053948;28;20174;-76
2021/06/10 10:35:33;;;;;;;1.37;1.27;;;33.70;48.80;;;;;;5052332;28;20421;-76
2021/06/10 10:38:10;;;;;;;2.60;1.07;;;34.00;51.00;;;;;;5052699;28;20229;-76
2021/06/10 10:40:40;;;;;;;1.23;0.80;;;34.30;51.90;;;;;;5052675;28;20799;-76
2021/06/10 10:43:11;;;;;;;1.00;0.90;;;34.40;52.40;;;;;;5052522;28;20479;-76
2021/06/10 10:45:37;;;;;;;1.60;1.20;;;34.50;52.60;;;;;;5053244;28;20468;-76
2021/06/10 10:48:08;;;;;;;1.30;1.20;;;34.50;51.30;;;;;;5053775;28;20891;-76
2021/06/10 10:50:45;;;;;;;1.30;1.20;;;34.40;49.80;;;;;;5053235;28;20220;-76
2021/06/10 10:53:18;;;;;;;1.50;1.37;;;34.20;48.90;;;;;;5050719;28;20517;-77
2021/06/10 10:55:44;;;;;;;1.30;1.00;;;34.40;51.60;;;;;;5049881;28;20933;-78
2021/06/10 10:58:18;;;;;;;1.10;1.00;;;34.70;52.40;;;;;;5055145;28;20489;-78
2021/06/10 11:00:57;;;;;;;1.13;1.03;;;35.10;51.00;;;;;;5054933;28;20433;-77
2021/06/10 11:03:28;;;;;;;1.20;1.10;;;35.50;49.50;;;;;;5056162;28;20440;-77
2021/06/10 11:05:55;;;;;;;1.13;1.03;;;35.60;50.20;;;;;;5056792;28;20457;-77
2021/06/10 11:08:23;;;;;;;1.20;1.10;;;35.70;50.90;;;;;;5057290;28;20465;-77
2021/06/10 11:10:57;;;;;;;1.30;1.20;;;35.90;51.70;;;;;;5055366;28;20420;-78
2021/06/10 11:13:24;;;;;;;1.03;0.93;;;36.20;51.30;;;;;;5055901;28;20771;-78
2021/06/10 11:15:52;;;;;;;1.10;0.90;;;36.40;50.20;;;;;;5053877;28;20432;-78
2021/06/10 11:18:43;;;;;;;1.10;1.00;;;36.40;49.00;;;;;;5055778;28;20470;-77
2021/06/10 11:21:15;;;;;;;1.67;1.00;;;36.50;49.00;;;;;;5053613;28;20405;-77
2021/06/10 11:23:41;;;;;;;1.10;1.00;;;36.60;48.40;;;;;;5045675;28;20821;-77
2021/06/10 11:26:21;;;;;;;1.20;1.10;;;36.70;49.20;;;;;;5046103;28;20493;-78
2021/06/10 11:29:01;;;;;;;1.20;1.10;;;36.60;48.60;;;;;;5051546;28;20173;-78
2021/06/10 11:31:28;;;;;;;1.00;0.77;;;36.90;48.60;;;;;;5055149;28;20409;-78
2021/06/10 11:33:54;;;;;;;1.30;1.20;;;36.90;46.90;;;;;;5055678;28;20406;-78
2021/06/10 11:36:19;;;;;;;1.40;1.10;;;36.90;47.80;;;;;;5053656;28;20452;-77
2021/06/10 11:38:48;;;;;;;1.10;1.00;;;37.10;47.80;;;;;;5055745;28;20519;-77
2021/06/10 11:41:16;;;;;;;1.00;0.90;;;37.60;47.40;;;;;;5062124;28;20537;-77
2021/06/10 11:43:45;;;;;;;1.57;1.47;;;37.80;47.40;;;;;;5060571;28;20818;-78
2021/06/10 11:46:14;;;;;;;1.63;1.50;;;37.40;48.00;;;;;;5054972;28;20461;-77
2021/06/10 11:48:51;;;;;;;1.30;1.20;;;37.60;47.40;;;;;;5052677;28;20405;-77
2021/06/10 11:51:22;;;;;;;1.30;1.20;;;37.40;47.40;;;;;;5053893;28;20413;-77
2021/06/10 11:53:49;;;;;;;1.50;1.10;;;37.20;47.70;;;;;;5052739;28;20413;-76
2021/06/10 11:56:22;;;;;;;1.73;1.20;;;37.10;47.40;;;;;;5049926;28;20440;-77
2021/06/10 11:58:48;;;;;;;1.13;1.00;;;36.80;46.30;;;;;;5051457;28;20785;-78
2021/06/10 12:01:14;;;;;;;1.80;1.67;;;36.50;46.70;;;;;;5054075;28;20420;-76
2021/06/10 12:03:40;;;;;;;1.50;1.10;;;36.40;45.90;;;;;;5052792;28;20198;-77
2021/06/10 12:06:11;;;;;;;1.43;1.33;;;36.30;46.60;;;;;;5052492;28;20915;-77
2021/06/10 12:08:38;;;;;;;1.33;1.23;;;36.20;47.50;;;;;;5049279;28;20414;-77
2021/06/10 12:11:08;;;;;;;1.40;1.30;;;36.40;45.60;;;;;;5051675;28;20412;-77
2021/06/10 12:13:47;;;;;;;1.33;1.13;;;36.80;47.90;;;;;;5053480;28;20421;-77
2021/06/10 12:16:18;;;;;;;1.67;1.57;;;36.80;47.30;;;;;;5052279;28;21128;-77
2021/06/10 12:18:45;;;;;;;1.20;1.10;;;36.50;47.60;;;;;;5034492;28;20414;-78
2021/06/10 12:21:18;;;;;;;0.97;0.87;;;36.60;47.80;;;;;;5034995;28;20414;-78
2021/06/10 12:23:49;;;;;;;1.60;1.50;;;36.70;47.90;;;;;;5032906;28;20415;-77
2021/06/10 12:26:17;;;;;;;1.10;1.00;;;36.50;45.30;;;;;;5063807;28;21050;-76
2021/06/10 12:28:46;;;;;;;1.27;1.17;;;36.60;48.30;;;;;;5032110;28;20407;-76
2021/06/10 12:31:22;;;;;;;1.30;1.03;;;36.70;48.50;;;;;;5033601;28;20703;-78
2021/06/10 12:33:50;;;;;;;1.47;1.37;;;36.90;47.30;;;;;;5031966;28;20410;-78
2021/06/10 12:36:21;;;;;;;1.20;1.10;;;36.80;44.30;;;;;;5064368;28;20449;-78
2021/06/10 12:38:55;;;;;;;1.13;1.03;;;37.20;47.10;;;;;;5033890;28;20493;-78
2021/06/10 12:41:28;;;;;;;1.27;1.17;;;36.90;45.30;;;;;;5034072;28;20408;-78
2021/06/10 12:44:04;;;;;;;1.30;1.20;;;36.90;46.40;;;;;;5033745;28;20417;-77
2021/06/10 12:46:31;;;;;;;1.20;1.10;;;37.10;47.00;;;;;;5032110;28;20465;-77
2021/06/10 12:48:59;;;;;;;1.57;1.47;;;37.00;44.70;;;;;;5033591;28;20442;-77
2021/06/10 12:51:33;;;;;;;1.30;1.20;;;37.10;46.30;;;;;;5034041;28;20406;-77
2021/06/10 12:54:09;;;;;;;1.30;1.10;;;36.70;45.30;;;;;;5046938;28;20527;-76
2021/06/10 12:56:51;;;;;;;1.40;1.20;;;36.70;46.40;;;;;;5053157;28;20460;-77
2021/06/10 12:59:20;;;;;;;1.10;1.00;;;36.40;45.90;;;;;;5050441;28;20413;-76
2021/06/10 13:02:13;;;;;;;1.20;0.90;;;36.50;47.60;;;;;;5053894;28;20405;-75
2021/06/10 13:04:43;;;;;;;1.10;1.00;;;36.40;47.00;;;;;;5054969;28;20528;-75
2021/06/10 13:07:34;;;;;;;1.57;1.20;;;36.50;44.40;;;;;;5057919;28;20445;-76
2021/06/10 13:10:03;;;;;;;1.30;1.20;;;36.50;47.20;;;;;;5058278;28;20409;-76
2021/06/10 13:12:40;;;;;;;1.30;1.20;;;36.40;46.80;;;;;;5056009;28;20945;-76
2021/06/10 13:15:09;;;;;;;1.30;1.20;;;36.20;46.60;;;;;;5055485;28;20425;-75
2021/06/10 13:17:51;;;;;;;1.20;1.07;;;35.90;48.20;;;;;;5055525;28;20412;-76
2021/06/10 13:20:55;;;;;;;1.17;1.07;;;35.90;47.10;;;;;;5055528;28;20462;-76
2021/06/10 13:23:35;;;;;;;1.03;0.93;;;35.80;46.40;;;;;;5055506;28;20437;-76
2021/06/10 13:26:06;;;;;;;1.67;1.40;;;35.80;45.50;;;;;;5056935;28;20465;-76
2021/06/10 13:28:32;;;;;;;1.57;1.33;;;35.50;44.30;;;;;;5058795;28;20401;-76
2021/06/10 13:31:16;;;;;;;1.57;1.43;;;35.70;44.50;;;;;;5059776;28;20401;-76
2021/06/10 13:33:46;;;;;;;1.33;1.23;;;35.60;44.10;;;;;;5061435;28;20515;-75
2021/06/10 13:36:14;;;;;;;1.40;1.30;;;35.30;44.90;;;;;;5055135;28;20441;-76
2021/06/10 13:38:39;;;;;;;1.30;1.20;;;35.20;48.00;;;;;;5055431;28;20492;-76
2021/06/10 13:41:06;;;;;;;1.20;1.10;;;34.90;47.40;;;;;;5055152;28;20977;-76
2021/06/10 13:43:34;;;;;;;1.17;1.07;;;34.80;47.40;;;;;;5055156;28;20179;-75
2021/06/10 13:46:00;;;;;;;1.37;1.27;;;34.50;47.60;;;;;;5054540;28;20518;-76
2021/06/10 13:48:25;;;;;;;1.10;1.00;;;34.30;47.30;;;;;;5058202;28;20418;-76
2021/06/10 13:50:51;;;;;;;1.17;1.07;;;34.10;45.50;;;;;;5057494;28;21047;-75
2021/06/10 13:53:16;;;;;;;1.57;1.30;;;34.10;47.90;;;;;;5055655;28;20163;-75
2021/06/10 13:56:04;;;;;;;1.30;1.20;;;33.80;45.30;;;;;;5061381;28;20541;-75